Time;durP1;ratioP1;P1;durP2;ratioP2;P2;SDS_P1;SDS_P2;PMS_P1;PMS_P2;Temp;Humidity;BMP_temperature;BMP_pressure;BME280_temperature;BME280_humidity;BME280_pressure;Samples;Min_cycle;Max_cycle;Signal;HPM_P1;HPM_P2
2023/06/10 00:03:54;;;;;;;4.20;3.63;;;;;;;;;;10453814;28;20040;-68
2023/06/10 00:08:55;;;;;;;6.63;3.45;;;;;;;;;;10456141;28;20083;-72
2023/06/10 00:13:55;;;;;;;15.30;3.60;;;;;;;;;;10457437;28;20028;-70
2023/06/10 00:19:00;;;;;;;5.25;3.70;;;;;;;;;;10453576;28;20396;-71
2023/06/10 00:24:02;;;;;;;3.78;3.45;;;;;;;;;;10450403;28;20029;-70
2023/06/10 00:29:03;;;;;;;4.68;3.80;;;;;;;;;;10446077;28;20033;-61
2023/06/10 00:34:04;;;;;;;5.28;3.25;;;;;;;;;;10451905;28;20036;-61
2023/06/10 00:39:04;;;;;;;3.78;3.28;;;;;;;;;;10454833;28;20025;-61
2023/06/10 00:44:05;;;;;;;5.10;3.20;;;;;;;;;;10467512;28;20272;-62
2023/06/10 00:49:06;;;;;;;3.42;2.95;;;;;;;;;;10461705;28;20036;-62
2023/06/10 00:54:07;;;;;;;3.65;3.33;;;;;;;;;;10455019;28;20031;-60
2023/06/10 00:59:08;;;;;;;5.00;3.10;;;;;;;;;;10439569;28;20033;-61
2023/06/10 01:04:11;;;;;;;10.05;3.35;;;;;;;;;;10452401;28;20381;-63
2023/06/10 01:09:30;;;;;;;5.63;3.50;;;;;;;;;;10453955;28;20041;-60
2023/06/10 01:14:31;;;;;;;4.82;3.75;;;;;;;;;;10451615;28;20159;-61
2023/06/10 01:19:33;;;;;;;5.78;3.30;;;;;;;;;;10443639;28;20068;-60
2023/06/10 01:24:34;;;;;;;6.90;3.38;;;;;;;;;;10452518;28;20499;-64
2023/06/10 01:29:52;;;;;;;5.57;3.60;;;;;;;;;;10449487;28;20128;-61
2023/06/10 01:34:55;;;;;;;3.97;3.42;;;;;;;;;;10448451;28;20041;-66
2023/06/10 01:40:03;;;;;;;3.92;3.53;;;;;;;;;;10438450;28;20090;-66
2023/06/10 01:45:04;;;;;;;11.43;3.50;;;;;;;;;;10437645;28;20025;-68
2023/06/10 01:50:06;;;;;;;3.40;3.10;;;;;;;;;;10440224;28;20374;-68
2023/06/10 01:55:07;;;;;;;3.70;3.25;;;;;;;;;;10450149;28;20086;-66
2023/06/10 02:00:08;;;;;;;3.72;3.03;;;;;;;;;;10436717;28;20025;-69
2023/06/10 02:05:09;;;;;;;4.63;3.17;;;;;;;;;;10450398;28;20391;-66
2023/06/10 02:10:10;;;;;;;3.53;3.22;;;;;;;;;;10450234;28;20021;-68
2023/06/10 02:15:10;;;;;;;4.70;3.17;;;;;;;;;;10449234;28;20021;-67
2023/06/10 02:20:11;;;;;;;3.25;2.92;;;;;;;;;;10450370;28;20099;-68
2023/06/10 02:25:12;;;;;;;3.65;3.00;;;;;;;;;;10447548;28;20043;-66
2023/06/10 02:30:13;;;;;;;3.67;3.38;;;;;;;;;;10449739;28;20404;-60
2023/06/10 02:35:15;;;;;;;3.85;3.28;;;;;;;;;;10450120;28;20123;-60
2023/06/10 02:40:16;;;;;;;6.60;3.42;;;;;;;;;;10448438;28;20106;-60
2023/06/10 02:45:16;;;;;;;3.28;2.92;;;;;;;;;;10449779;28;20087;-60
2023/06/10 02:50:17;;;;;;;3.83;3.13;;;;;;;;;;10450567;28;20029;-60
2023/06/10 02:55:17;;;;;;;5.55;3.42;;;;;;;;;;10448520;28;20070;-60
2023/06/10 03:00:20;;;;;;;4.57;3.40;;;;;;;;;;10454216;28;20028;-64
2023/06/10 03:05:22;;;;;;;7.63;3.80;;;;;;;;;;10456859;28;20108;-63
2023/06/10 03:10:22;;;;;;;4.40;3.60;;;;;;;;;;10457745;28;20037;-63
2023/06/10 03:15:24;;;;;;;5.45;4.35;;;;;;;;;;10455800;28;20048;-66
2023/06/10 03:20:25;;;;;;;4.45;3.75;;;;;;;;;;10456102;28;20094;-64
2023/06/10 03:25:26;;;;;;;6.45;4.13;;;;;;;;;;10456510;28;20436;-67
2023/06/10 03:30:27;;;;;;;5.20;4.50;;;;;;;;;;10456508;28;20091;-64
2023/06/10 03:35:32;;;;;;;5.95;4.53;;;;;;;;;;10447486;28;20036;-65
2023/06/10 03:40:32;;;;;;;5.53;4.18;;;;;;;;;;10454884;28;20037;-65
2023/06/10 03:45:33;;;;;;;5.20;4.20;;;;;;;;;;10454879;28;20082;-69
2023/06/10 03:50:36;;;;;;;5.60;4.70;;;;;;;;;;10463392;28;20033;-70
2023/06/10 03:55:36;;;;;;;9.23;5.22;;;;;;;;;;10455604;28;20037;-68
2023/06/10 04:00:41;;;;;;;6.13;4.70;;;;;;;;;;10455447;28;20029;-68
2023/06/10 04:05:41;;;;;;;6.20;4.95;;;;;;;;;;10452109;28;20035;-68
2023/06/10 04:10:42;;;;;;;9.10;4.68;;;;;;;;;;10454857;28;20412;-66
2023/06/10 04:15:42;;;;;;;7.32;5.00;;;;;;;;;;10452708;28;20087;-67
2023/06/10 04:20:44;;;;;;;7.90;4.95;;;;;;;;;;10455407;28;20041;-68
2023/06/10 04:25:45;;;;;;;6.80;4.72;;;;;;;;;;10455062;28;20393;-69
2023/06/10 04:30:45;;;;;;;6.40;5.20;;;;;;;;;;10452166;28;20044;-61
2023/06/10 04:35:47;;;;;;;7.78;4.45;;;;;;;;;;10454142;28;20029;-61
2023/06/10 04:40:48;;;;;;;6.03;4.50;;;;;;;;;;10451328;28;20144;-63
2023/06/10 04:45:48;;;;;;;5.22;4.65;;;;;;;;;;10452947;28;20025;-61
2023/06/10 04:50:50;;;;;;;6.78;4.40;;;;;;;;;;10457356;28;20362;-61
2023/06/10 04:55:50;;;;;;;5.38;4.30;;;;;;;;;;10453674;28;20436;-60
2023/06/10 05:00:51;;;;;;;5.82;4.82;;;;;;;;;;10450256;28;20056;-60
2023/06/10 05:05:51;;;;;;;10.32;5.32;;;;;;;;;;10449723;28;20033;-62
2023/06/10 05:10:52;;;;;;;5.40;4.55;;;;;;;;;;10452335;28;20032;-61
2023/06/10 05:15:52;;;;;;;6.03;5.03;;;;;;;;;;10451025;28;20029;-62
2023/06/10 05:20:53;;;;;;;6.05;5.55;;;;;;;;;;10449929;28;20477;-62
2023/06/10 05:25:54;;;;;;;9.85;5.13;;;;;;;;;;10451100;28;20039;-61
2023/06/10 05:30:55;;;;;;;5.63;5.10;;;;;;;;;;10451467;28;20040;-61
2023/06/10 05:35:56;;;;;;;6.10;5.00;;;;;;;;;;10451813;28;20036;-70
2023/06/10 05:40:56;;;;;;;5.68;5.07;;;;;;;;;;10451025;28;20024;-70
2023/06/10 05:45:57;;;;;;;5.30;4.53;;;;;;;;;;10449935;28;20048;-70
2023/06/10 05:50:58;;;;;;;4.90;3.90;;;;;;;;;;10446566;28;20492;-70
2023/06/10 05:55:58;;;;;;;4.05;3.25;;;;;;;;;;10449622;28;20029;-70
2023/06/10 06:00:59;;;;;;;6.30;3.78;;;;;;;;;;10449277;28;20020;-66
2023/06/10 06:06:00;;;;;;;4.05;3.00;;;;;;;;;;10445143;28;20607;-67
2023/06/10 06:11:00;;;;;;;7.43;3.30;;;;;;;;;;10450961;28;20074;-67
2023/06/10 06:16:01;;;;;;;3.92;3.25;;;;;;;;;;10449020;28;20064;-69
2023/06/10 06:21:02;;;;;;;4.70;3.10;;;;;;;;;;10451473;28;20079;-65
2023/06/10 06:26:02;;;;;;;4.45;2.85;;;;;;;;;;10448670;28;20295;-65
2023/06/10 06:31:03;;;;;;;9.52;2.70;;;;;;;;;;10447236;28;20048;-62
2023/06/10 06:36:03;;;;;;;3.20;2.45;;;;;;;;;;10446733;28;20037;-66
2023/06/10 06:41:06;;;;;;;4.60;2.70;;;;;;;;;;10449883;28;20044;-66
2023/06/10 06:46:07;;;;;;;7.82;3.00;;;;;;;;;;10447969;28;20060;-68
2023/06/10 06:51:07;;;;;;;14.52;2.90;;;;;;;;;;10451211;28;20071;-63
2023/06/10 06:56:08;;;;;;;4.85;2.70;;;;;;;;;;10449503;28;20268;-64
2023/06/10 07:01:08;;;;;;;5.45;2.95;;;;;;;;;;10445362;28;20040;-65
2023/06/10 07:06:09;;;;;;;5.43;2.80;;;;;;;;;;10448615;28;20116;-61
2023/06/10 07:11:10;;;;;;;15.50;2.50;;;;;;;;;;10447256;28;20028;-73
2023/06/10 07:16:10;;;;;;;2.78;2.55;;;;;;;;;;10451454;28;20043;-61
2023/06/10 07:21:11;;;;;;;3.08;2.45;;;;;;;;;;10446697;28;20037;-61
2023/06/10 07:26:13;;;;;;;2.90;2.15;;;;;;;;;;10448211;28;20044;-61
2023/06/10 07:31:13;;;;;;;3.08;2.40;;;;;;;;;;10445379;28;20068;-60
2023/06/10 07:36:14;;;;;;;4.15;2.33;;;;;;;;;;10446585;28;20119;-59
2023/06/10 07:41:17;;;;;;;2.15;1.95;;;;;;;;;;10445735;28;20032;-59
2023/06/10 07:46:18;;;;;;;4.65;2.00;;;;;;;;;;10445862;28;20041;-59
2023/06/10 07:51:19;;;;;;;13.93;2.70;;;;;;;;;;10455332;28;20024;-59
2023/06/10 07:56:21;;;;;;;7.75;3.05;;;;;;;;;;10439615;28;20040;-58
2023/06/10 08:01:23;;;;;;;5.53;2.75;;;;;;;;;;10454549;28;20028;-61
2023/06/10 08:06:24;;;;;;;4.05;3.28;;;;;;;;;;10453346;28;20036;-59
2023/06/10 08:11:27;;;;;;;6.03;3.10;;;;;;;;;;10452863;28;20435;-61
2023/06/10 08:16:27;;;;;;;4.60;3.38;;;;;;;;;;10450970;28;20480;-59
2023/06/10 08:21:28;;;;;;;4.97;3.40;;;;;;;;;;10445965;28;20033;-59
2023/06/10 08:26:29;;;;;;;4.60;3.20;;;;;;;;;;10453670;28;20043;-59
2023/06/10 08:31:29;;;;;;;4.65;3.42;;;;;;;;;;10444326;28;20228;-59
2023/06/10 08:36:30;;;;;;;3.28;2.97;;;;;;;;;;10447162;28;20041;-59
2023/06/10 08:41:41;;;;;;;6.32;3.20;;;;;;;;;;10440185;28;20029;-59
2023/06/10 08:46:44;;;;;;;3.97;3.08;;;;;;;;;;10442195;28;20067;-59
2023/06/10 08:51:47;;;;;;;6.15;3.33;;;;;;;;;;10453948;28;20043;-59
2023/06/10 08:56:51;;;;;;;3.58;3.08;;;;;;;;;;10446703;28;20086;-59
2023/06/10 09:01:53;;;;;;;3.58;3.20;;;;;;;;;;10446853;28;20220;-59
2023/06/10 09:06:55;;;;;;;3.40;2.88;;;;;;;;;;10450461;28;20024;-59
2023/06/10 09:11:55;;;;;;;3.97;3.45;;;;;;;;;;10450660;28;20087;-58
2023/06/10 09:16:57;;;;;;;4.28;3.17;;;;;;;;;;10448554;28;20036;-59
2023/06/10 09:21:59;;;;;;;3.85;3.13;;;;;;;;;;10450347;28;20024;-59
2023/06/10 09:27:07;;;;;;;7.00;3.88;;;;;;;;;;10447289;28;20071;-60
2023/06/10 09:32:08;;;;;;;5.20;3.10;;;;;;;;;;10424414;28;20124;-59
2023/06/10 09:37:12;;;;;;;4.55;3.63;;;;;;;;;;10429708;28;20058;-67
2023/06/10 09:42:19;;;;;;;4.60;3.65;;;;;;;;;;10443614;28;20115;-67
2023/06/10 09:47:22;;;;;;;4.47;3.40;;;;;;;;;;10437957;28;20630;-66
2023/06/10 09:52:24;;;;;;;4.28;3.53;;;;;;;;;;10442240;28;20451;-61
2023/06/10 09:57:25;;;;;;;5.65;3.53;;;;;;;;;;10435279;28;20465;-60
2023/06/10 10:02:26;;;;;;;6.00;3.47;;;;;;;;;;10429161;28;20083;-67
2023/06/10 10:07:26;;;;;;;4.57;3.13;;;;;;;;;;10449099;28;20157;-65
2023/06/10 10:12:27;;;;;;;5.57;3.15;;;;;;;;;;10445907;28;20075;-63
2023/06/10 10:17:31;;;;;;;6.93;3.50;;;;;;;;;;10450696;28;20025;-60
2023/06/10 10:22:41;;;;;;;3.78;3.40;;;;;;;;;;10439663;28;20029;-59
2023/06/10 10:27:54;;;;;;;4.82;3.20;;;;;;;;;;10446858;28;20025;-60
2023/06/10 10:33:12;;;;;;;3.45;3.15;;;;;;;;;;10436063;28;20378;-60
2023/06/10 10:38:13;;;;;;;3.40;3.10;;;;;;;;;;10435995;28;20044;-59
2023/06/10 10:43:14;;;;;;;5.25;3.47;;;;;;;;;;10444315;28;20044;-60
2023/06/10 10:48:15;;;;;;;3.70;3.40;;;;;;;;;;10423346;28;20485;-60
2023/06/10 10:53:20;;;;;;;4.22;3.30;;;;;;;;;;10448120;28;20063;-60
2023/06/10 10:58:24;;;;;;;4.47;3.58;;;;;;;;;;10444182;28;20519;-60
2023/06/10 11:03:32;;;;;;;6.88;3.08;;;;;;;;;;10442199;28;20074;-60
2023/06/10 11:08:32;;;;;;;4.33;3.20;;;;;;;;;;10443695;28;20037;-60
2023/06/10 11:13:32;;;;;;;3.50;3.13;;;;;;;;;;10444980;28;20074;-60
2023/06/10 11:18:39;;;;;;;3.78;3.22;;;;;;;;;;10444960;28;20389;-60
2023/06/10 11:23:41;;;;;;;4.57;3.10;;;;;;;;;;10454228;28;20465;-60
2023/06/10 11:29:05;;;;;;;3.80;3.30;;;;;;;;;;10454881;28;20028;-60
2023/06/10 11:34:06;;;;;;;3.88;3.40;;;;;;;;;;10455307;28;20507;-60
2023/06/10 11:39:08;;;;;;;3.65;3.20;;;;;;;;;;10453590;28;20396;-60
2023/06/10 11:44:10;;;;;;;4.28;3.10;;;;;;;;;;10453356;28;20025;-59
2023/06/10 11:49:11;;;;;;;3.97;3.10;;;;;;;;;;10450613;28;20079;-59
2023/06/10 11:54:12;;;;;;;3.35;3.05;;;;;;;;;;10454076;28;20385;-59
2023/06/10 11:59:13;;;;;;;3.53;3.22;;;;;;;;;;10453994;28;20041;-60
2023/06/10 12:04:16;;;;;;;3.63;3.25;;;;;;;;;;10454457;28;20032;-59
2023/06/10 12:09:27;;;;;;;3.40;3.10;;;;;;;;;;10430150;28;20078;-60
2023/06/10 12:14:57;;;;;;;3.83;2.90;;;;;;;;;;10453048;28;20033;-60
2023/06/10 12:19:59;;;;;;;3.72;3.10;;;;;;;;;;10443165;28;20112;-60
2023/06/10 12:25:03;;;;;;;3.78;3.20;;;;;;;;;;10453695;28;20477;-60
2023/06/10 12:30:06;;;;;;;3.28;2.92;;;;;;;;;;10432167;28;20244;-60
2023/06/10 12:35:08;;;;;;;3.78;3.47;;;;;;;;;;10454681;28;20041;-60
2023/06/10 12:40:09;;;;;;;3.45;3.13;;;;;;;;;;10454359;28;20067;-60
2023/06/10 12:45:11;;;;;;;3.90;2.97;;;;;;;;;;10436207;28;20029;-63
2023/06/10 12:50:12;;;;;;;3.42;3.13;;;;;;;;;;10442767;28;20036;-59
2023/06/10 12:55:12;;;;;;;4.13;3.00;;;;;;;;;;10446484;28;20420;-60
2023/06/10 13:00:14;;;;;;;5.28;3.60;;;;;;;;;;10452198;28;20392;-61
2023/06/10 13:05:14;;;;;;;3.92;3.38;;;;;;;;;;10436508;28;20481;-61
2023/06/10 13:10:16;;;;;;;4.18;3.35;;;;;;;;;;10444517;28;20084;-60
2023/06/10 13:15:18;;;;;;;6.80;3.58;;;;;;;;;;10442563;28;20033;-60
2023/06/10 13:20:20;;;;;;;6.45;3.42;;;;;;;;;;10442368;28;20029;-61
2023/06/10 13:25:21;;;;;;;3.33;2.97;;;;;;;;;;10450859;28;20123;-61
2023/06/10 13:30:21;;;;;;;9.82;3.47;;;;;;;;;;10450238;28;20037;-62
2023/06/10 13:35:22;;;;;;;8.18;3.25;;;;;;;;;;10446306;28;20035;-62
2023/06/10 13:40:23;;;;;;;5.65;3.47;;;;;;;;;;10455936;28;20025;-62
2023/06/10 13:45:24;;;;;;;9.13;3.70;;;;;;;;;;10451901;28;20583;-63
2023/06/10 13:50:25;;;;;;;3.42;3.13;;;;;;;;;;10458706;28;20457;-61
2023/06/10 13:55:26;;;;;;;5.68;3.45;;;;;;;;;;10429106;28;20037;-62
2023/06/10 14:00:29;;;;;;;4.90;3.50;;;;;;;;;;10447041;28;20045;-61
2023/06/10 14:05:30;;;;;;;3.90;3.15;;;;;;;;;;10443472;28;20029;-62
2023/06/10 14:10:30;;;;;;;16.17;3.83;;;;;;;;;;10441677;28;20481;-60
2023/06/10 14:15:32;;;;;;;13.68;3.35;;;;;;;;;;10443034;28;20435;-61
2023/06/10 14:20:32;;;;;;;11.07;3.40;;;;;;;;;;10431946;28;20040;-60
2023/06/10 14:25:33;;;;;;;11.85;3.40;;;;;;;;;;10430347;28;20064;-61
2023/06/10 14:30:34;;;;;;;4.97;3.10;;;;;;;;;;10450146;28;20045;-60
2023/06/10 14:35:34;;;;;;;5.18;3.45;;;;;;;;;;10444823;28;20048;-60
2023/06/10 14:40:36;;;;;;;4.47;3.35;;;;;;;;;;10428115;28;20067;-60
2023/06/10 14:45:39;;;;;;;4.32;3.20;;;;;;;;;;10434245;28;20419;-61
2023/06/10 14:50:41;;;;;;;5.70;2.95;;;;;;;;;;10430153;28;20021;-60
2023/06/10 14:55:41;;;;;;;5.07;3.28;;;;;;;;;;10428901;28;20033;-65
2023/06/10 15:00:42;;;;;;;3.85;3.17;;;;;;;;;;10443313;28;20442;-63
2023/06/10 15:05:42;;;;;;;4.75;2.70;;;;;;;;;;10448057;28;20035;-61
2023/06/10 15:10:43;;;;;;;5.40;3.38;;;;;;;;;;10441775;28;20037;-60
2023/06/10 15:15:44;;;;;;;4.13;3.03;;;;;;;;;;10432062;28;20056;-61
2023/06/10 15:20:45;;;;;;;3.20;2.90;;;;;;;;;;10457553;28;20329;-61
2023/06/10 15:25:46;;;;;;;4.10;3.40;;;;;;;;;;10458393;28;20272;-61
2023/06/10 15:30:47;;;;;;;3.67;2.83;;;;;;;;;;10443340;28;20045;-60
2023/06/10 15:35:47;;;;;;;4.28;3.17;;;;;;;;;;10451293;28;20040;-61
2023/06/10 15:40:48;;;;;;;3.42;2.83;;;;;;;;;;10433364;28;20028;-60
2023/06/10 15:45:48;;;;;;;3.47;3.15;;;;;;;;;;10436154;28;20109;-61
2023/06/10 15:50:49;;;;;;;4.60;3.00;;;;;;;;;;10447952;28;20021;-60
2023/06/10 15:55:50;;;;;;;3.22;2.78;;;;;;;;;;10448617;28;20047;-63
2023/06/10 16:00:50;;;;;;;3.17;2.65;;;;;;;;;;10451800;28;20029;-60
2023/06/10 16:05:51;;;;;;;3.33;3.00;;;;;;;;;;10454848;28;20025;-62
2023/06/10 16:10:51;;;;;;;5.22;3.10;;;;;;;;;;10441587;28;20033;-60
2023/06/10 16:15:52;;;;;;;3.42;2.80;;;;;;;;;;10442331;28;20021;-60
2023/06/10 16:20:53;;;;;;;3.33;2.90;;;;;;;;;;10441293;28;20025;-65
2023/06/10 16:25:53;;;;;;;4.20;2.80;;;;;;;;;;10455101;28;20029;-60
2023/06/10 16:30:54;;;;;;;6.35;2.83;;;;;;;;;;10448293;28;20124;-61
2023/06/10 16:35:54;;;;;;;5.50;2.90;;;;;;;;;;10448038;28;20034;-61
2023/06/10 16:40:57;;;;;;;4.38;2.80;;;;;;;;;;10443288;28;20371;-60
2023/06/10 16:45:57;;;;;;;3.63;2.92;;;;;;;;;;10441014;28;20029;-60
2023/06/10 16:50:58;;;;;;;4.32;2.78;;;;;;;;;;10456664;28;20033;-59
2023/06/10 16:55:58;;;;;;;3.22;2.47;;;;;;;;;;10438400;28;20033;-60
2023/06/10 17:01:06;;;;;;;9.90;3.08;;;;;;;;;;10432817;28;20036;-60
2023/06/10 17:06:06;;;;;;;4.80;2.60;;;;;;;;;;10438919;28;20044;-60
2023/06/10 17:11:07;;;;;;;6.78;2.58;;;;;;;;;;10438941;28;20040;-60
2023/06/10 17:16:07;;;;;;;5.60;2.90;;;;;;;;;;10422283;28;20455;-60
2023/06/10 17:21:08;;;;;;;10.63;2.85;;;;;;;;;;10446956;28;20391;-61
2023/06/10 17:26:09;;;;;;;9.73;2.67;;;;;;;;;;10446265;28;20384;-62
2023/06/10 17:31:09;;;;;;;7.07;2.90;;;;;;;;;;10434727;28;20045;-60
2023/06/10 17:36:10;;;;;;;8.55;2.42;;;;;;;;;;10431567;28;20354;-60
2023/06/10 17:41:10;;;;;;;5.72;2.92;;;;;;;;;;10435802;28;20044;-61
2023/06/10 17:46:11;;;;;;;4.05;2.83;;;;;;;;;;10445788;28;20036;-60
2023/06/10 17:51:12;;;;;;;6.20;3.22;;;;;;;;;;10442160;28;20029;-60
2023/06/10 17:56:13;;;;;;;4.57;2.90;;;;;;;;;;10427790;28;20036;-63
2023/06/10 18:01:13;;;;;;;5.22;3.00;;;;;;;;;;10451686;28;20394;-60
2023/06/10 18:06:14;;;;;;;5.85;2.70;;;;;;;;;;10459618;28;20033;-60
2023/06/10 18:11:15;;;;;;;3.00;2.45;;;;;;;;;;10436037;28;20027;-61
2023/06/10 18:16:15;;;;;;;3.72;2.55;;;;;;;;;;10447123;28;20029;-64
2023/06/10 18:21:16;;;;;;;4.55;2.90;;;;;;;;;;10448510;28;20491;-60
2023/06/10 18:26:16;;;;;;;6.22;3.00;;;;;;;;;;10443432;28;20029;-60
2023/06/10 18:31:17;;;;;;;2.95;2.60;;;;;;;;;;10432246;28;20044;-61
2023/06/10 18:36:18;;;;;;;4.28;2.53;;;;;;;;;;10438582;28;20121;-61
2023/06/10 18:41:18;;;;;;;5.13;2.90;;;;;;;;;;10441133;28;20508;-63
2023/06/10 18:46:27;;;;;;;3.42;2.38;;;;;;;;;;10436640;28;20464;-61
2023/06/10 18:51:27;;;;;;;4.35;2.83;;;;;;;;;;10429951;28;20958;-59
2023/06/10 18:56:28;;;;;;;3.83;2.50;;;;;;;;;;10444077;28;20483;-61
2023/06/10 19:01:29;;;;;;;7.15;2.70;;;;;;;;;;10447706;28;20078;-59
2023/06/10 19:06:29;;;;;;;3.80;2.70;;;;;;;;;;10447293;28;20024;-59
2023/06/10 19:11:40;;;;;;;8.10;2.70;;;;;;;;;;10426965;28;20031;-59
2023/06/10 19:16:50;;;;;;;4.15;2.97;;;;;;;;;;10431512;28;20040;-59
2023/06/10 19:21:59;;;;;;;11.57;4.50;;;;;;;;;;10450388;28;20427;-60
2023/06/10 19:27:00;;;;;;;6.75;4.68;;;;;;;;;;10449993;28;20052;-61
2023/06/10 19:32:01;;;;;;;8.90;4.20;;;;;;;;;;10444142;28;20060;-60
2023/06/10 19:37:01;;;;;;;11.93;4.45;;;;;;;;;;10424379;28;20059;-60
2023/06/10 19:42:02;;;;;;;7.88;3.88;;;;;;;;;;10448048;28;20476;-60
2023/06/10 19:47:12;;;;;;;5.63;3.33;;;;;;;;;;10452548;28;20021;-60
2023/06/10 19:52:13;;;;;;;3.60;3.30;;;;;;;;;;10441351;28;20039;-60
2023/06/10 19:57:13;;;;;;;4.85;3.65;;;;;;;;;;10454025;28;20400;-60
2023/06/10 20:02:14;;;;;;;5.18;4.25;;;;;;;;;;10450319;28;20404;-61
2023/06/10 20:07:14;;;;;;;5.28;3.63;;;;;;;;;;10457044;28;20029;-60
2023/06/10 20:12:15;;;;;;;7.40;3.78;;;;;;;;;;10453645;28;20044;-60
2023/06/10 20:17:23;;;;;;;6.07;3.47;;;;;;;;;;10451058;28;20500;-60
2023/06/10 20:22:24;;;;;;;3.67;3.38;;;;;;;;;;10441219;28;20029;-61
2023/06/10 20:27:24;;;;;;;5.60;3.30;;;;;;;;;;10446165;28;20029;-61
2023/06/10 20:32:25;;;;;;;5.18;3.42;;;;;;;;;;10445080;28;20045;-61
2023/06/10 20:37:26;;;;;;;8.23;3.30;;;;;;;;;;10434750;28;20036;-61
2023/06/10 20:42:26;;;;;;;6.50;4.65;;;;;;;;;;10432584;28;20025;-61
2023/06/10 20:47:27;;;;;;;5.50;4.90;;;;;;;;;;10435857;28;20056;-61
2023/06/10 20:52:27;;;;;;;6.13;4.13;;;;;;;;;;10434709;28;20017;-61
2023/06/10 20:57:28;;;;;;;5.65;3.97;;;;;;;;;;10434559;28;20396;-62
2023/06/10 21:02:29;;;;;;;6.15;4.20;;;;;;;;;;10435219;28;20037;-61
2023/06/10 21:07:30;;;;;;;4.95;4.55;;;;;;;;;;10435199;28;20044;-61
2023/06/10 21:12:30;;;;;;;6.47;4.78;;;;;;;;;;10429808;28;20477;-63
2023/06/10 21:17:31;;;;;;;5.97;5.00;;;;;;;;;;10431737;28;20098;-60
2023/06/10 21:22:31;;;;;;;8.15;4.80;;;;;;;;;;10425689;28;20393;-60
2023/06/10 21:27:32;;;;;;;5.75;5.13;;;;;;;;;;10425761;28;20036;-64
2023/06/10 21:32:33;;;;;;;4.90;4.15;;;;;;;;;;10444130;28;20049;-60
2023/06/10 21:37:33;;;;;;;16.33;5.20;;;;;;;;;;10447390;28;20127;-60
2023/06/10 21:42:34;;;;;;;6.18;5.03;;;;;;;;;;10445639;28;20500;-60
2023/06/10 21:47:35;;;;;;;8.18;4.75;;;;;;;;;;10453779;28;20087;-60
2023/06/10 21:52:35;;;;;;;8.55;4.57;;;;;;;;;;10449962;28;20039;-60
2023/06/10 21:57:36;;;;;;;5.85;4.60;;;;;;;;;;10440069;28;20045;-60
2023/06/10 22:02:40;;;;;;;5.20;4.40;;;;;;;;;;10445401;28;20550;-63
2023/06/10 22:07:41;;;;;;;5.70;4.93;;;;;;;;;;10443627;28;20022;-60
2023/06/10 22:12:41;;;;;;;5.45;4.93;;;;;;;;;;10438690;28;20036;-60
2023/06/10 22:17:42;;;;;;;7.68;4.43;;;;;;;;;;10447842;28;20021;-61
2023/06/10 22:22:43;;;;;;;5.35;4.32;;;;;;;;;;10443430;28;20026;-64
2023/06/10 22:27:43;;;;;;;7.93;4.53;;;;;;;;;;10441955;28;20033;-70
2023/06/10 22:32:44;;;;;;;7.38;4.30;;;;;;;;;;10443833;28;20048;-63
2023/06/10 22:37:45;;;;;;;9.73;4.30;;;;;;;;;;10448467;28;20036;-68
2023/06/10 22:42:45;;;;;;;11.15;4.50;;;;;;;;;;10447721;28;20029;-65
2023/06/10 22:47:46;;;;;;;4.95;3.67;;;;;;;;;;10449936;28;20037;-68
2023/06/10 22:52:47;;;;;;;8.68;3.88;;;;;;;;;;10449278;28;20036;-68
2023/06/10 22:57:48;;;;;;;8.50;3.88;;;;;;;;;;10449435;28;20044;-69
2023/06/10 23:02:48;;;;;;;9.45;4.10;;;;;;;;;;10449643;28;20032;-66
2023/06/10 23:07:49;;;;;;;5.13;3.40;;;;;;;;;;10448528;28;20560;-66
2023/06/10 23:12:50;;;;;;;4.32;3.30;;;;;;;;;;10450032;28;20481;-67
2023/06/10 23:17:55;;;;;;;7.50;3.67;;;;;;;;;;10455799;28;20028;-66
2023/06/10 23:22:55;;;;;;;15.35;3.70;;;;;;;;;;10457894;28;20025;-61
2023/06/10 23:27:56;;;;;;;8.30;3.83;;;;;;;;;;10456100;28;20028;-60
2023/06/10 23:32:58;;;;;;;11.43;3.47;;;;;;;;;;10443788;28;20040;-60
2023/06/10 23:37:58;;;;;;;6.53;3.42;;;;;;;;;;10434781;28;20084;-63
2023/06/10 23:42:59;;;;;;;5.15;3.28;;;;;;;;;;10450581;28;20025;-66
2023/06/10 23:47:59;;;;;;;3.83;2.97;;;;;;;;;;10444670;28;20055;-64
2023/06/10 23:53:00;;;;;;;3.47;2.92;;;;;;;;;;10455914;28;20040;-63
2023/06/10 23:58:02;;;;;;;6.28;2.90;;;;;;;;;;10456567;28;20396;-62
